createdAt,value
2019-03-05T00:00:33.998Z,1.80
2019-03-05T00:05:39.235Z,1.65
2019-03-05T00:10:44.480Z,1.27
2019-03-05T00:15:51.277Z,1.30
2019-03-05T00:20:56.510Z,1.63
2019-03-05T00:26:01.755Z,1.70
2019-03-05T00:31:12.653Z,2.30
2019-03-05T00:36:27.221Z,1.60
2019-03-05T00:41:37.734Z,1.42
2019-03-05T00:46:56.433Z,0.80
2019-03-05T00:52:14.169Z,1.23
2019-03-05T00:57:37.265Z,0.90
2019-03-05T01:02:54.708Z,1.00
2019-03-05T01:07:59.941Z,1.17
2019-03-05T01:13:05.431Z,0.93
2019-03-05T01:18:10.690Z,1.70
2019-03-05T01:23:15.909Z,1.37
2019-03-05T01:28:21.295Z,1.63
2019-03-05T01:33:28.656Z,2.00
2019-03-05T01:38:42.581Z,2.55
2019-03-05T01:43:47.890Z,1.67
2019-03-05T01:48:53.175Z,1.97
2019-03-05T01:53:58.441Z,2.40
2019-03-05T01:59:03.759Z,2.30
2019-03-05T02:04:09.067Z,2.20
2019-03-05T02:09:14.490Z,2.00
2019-03-05T02:14:19.861Z,2.00
2019-03-05T02:19:34.858Z,1.70
2019-03-05T02:25:01.556Z,1.92
2019-03-05T02:30:19.402Z,1.70
2019-03-05T02:35:38.327Z,2.13
2019-03-05T02:40:55.112Z,2.23
2019-03-05T02:46:08.198Z,2.73
2019-03-05T02:51:30.082Z,2.20
2019-03-05T02:56:43.590Z,1.85
2019-03-05T03:01:58.281Z,2.13
2019-03-05T03:07:03.513Z,1.83
2019-03-05T03:12:08.749Z,2.20
2019-03-05T03:17:14.065Z,1.83
2019-03-05T03:22:19.328Z,1.70
2019-03-05T03:27:25.562Z,2.35
2019-03-05T03:32:30.975Z,1.70
2019-03-05T03:37:36.219Z,1.67
2019-03-05T03:42:41.627Z,1.33
2019-03-05T03:47:47.015Z,1.90
2019-03-05T03:52:52.343Z,1.60
2019-03-05T03:57:57.781Z,1.57
2019-03-05T04:03:03.060Z,1.67
2019-03-05T04:08:10.523Z,1.90
2019-03-05T04:13:15.427Z,1.40
2019-03-05T04:18:20.729Z,1.43
2019-03-05T04:23:26.051Z,1.70
2019-03-05T04:28:31.258Z,1.27
2019-03-05T04:33:36.588Z,1.70
2019-03-05T04:38:41.902Z,1.23
2019-03-05T04:43:47.291Z,2.17
2019-03-05T04:49:11.325Z,1.80
2019-03-05T04:54:16.572Z,1.63
2019-03-05T04:59:21.834Z,1.00
2019-03-05T05:04:27.156Z,1.70
2019-03-05T05:09:32.411Z,1.20
2019-03-05T05:14:37.626Z,1.92
2019-03-05T05:19:42.828Z,1.70
2019-03-05T05:24:48.045Z,2.10
2019-03-05T05:29:53.330Z,1.87
2019-03-05T05:34:58.570Z,2.27
2019-03-05T05:40:21.145Z,2.37
2019-03-05T05:45:28.381Z,2.50
2019-03-05T05:50:33.682Z,1.77
2019-03-05T05:55:38.970Z,2.25
2019-03-05T06:00:53.033Z,1.90
2019-03-05T06:05:58.413Z,2.47
2019-03-05T06:11:03.795Z,1.40
2019-03-05T06:16:09.228Z,1.13
2019-03-05T06:21:14.465Z,1.20
2019-03-05T06:26:19.731Z,1.00
2019-03-05T06:31:24.926Z,1.70
2019-03-05T06:36:41.091Z,1.70
2019-03-05T06:41:46.318Z,1.70
2019-03-05T06:46:51.584Z,1.90
2019-03-05T06:51:56.951Z,1.67
2019-03-05T06:57:02.397Z,1.60
2019-03-05T07:02:07.754Z,1.40
2019-03-05T07:07:13.070Z,1.23
2019-03-05T07:12:25.444Z,1.37
2019-03-05T07:17:38.390Z,1.12
2019-03-05T07:22:52.196Z,1.70
2019-03-05T07:27:59.141Z,2.77
2019-03-05T07:33:04.821Z,0.80
2019-03-05T07:38:10.137Z,1.13
2019-03-05T07:43:15.911Z,0.83
2019-03-05T07:48:21.245Z,1.33
2019-03-05T07:53:26.410Z,0.83
2019-03-05T07:58:31.690Z,1.20
2019-03-05T08:03:37.010Z,1.72
2019-03-05T08:09:00.130Z,1.10
2019-03-05T08:14:31.870Z,0.93
2019-03-05T08:19:37.180Z,1.60
2019-03-05T08:24:42.491Z,0.80
2019-03-05T08:29:47.895Z,1.33
2019-03-05T08:34:53.111Z,1.60
2019-03-05T08:39:58.530Z,1.30
2019-03-05T08:45:03.885Z,1.70
2019-03-05T08:50:10.405Z,1.50
2019-03-05T08:55:15.790Z,1.30
2019-03-05T09:00:21.334Z,1.53
2019-03-05T09:05:26.793Z,1.30
2019-03-05T09:10:32.327Z,1.30
2019-03-05T09:15:37.773Z,1.50
2019-03-05T09:20:43.226Z,1.73
2019-03-05T09:25:48.851Z,1.70
2019-03-05T09:30:53.999Z,1.33
2019-03-05T09:35:59.350Z,1.30
2019-03-05T09:41:04.818Z,1.60
2019-03-05T09:46:10.203Z,1.40
2019-03-05T09:51:15.646Z,1.80
2019-03-05T09:56:20.795Z,1.30
2019-03-05T10:01:26.426Z,1.03
2019-03-05T10:06:31.716Z,1.35
2019-03-05T10:11:37.049Z,0.97
2019-03-05T10:16:42.367Z,1.15
2019-03-05T10:21:48.063Z,1.00
2019-03-05T10:26:53.461Z,1.17
2019-03-05T10:31:58.645Z,1.33
2019-03-05T10:37:12.673Z,1.70
2019-03-05T10:42:12.309Z,1.30
2019-03-05T10:47:17.775Z,1.30
2019-03-05T10:52:23.186Z,1.40
2019-03-05T10:57:28.501Z,1.70
2019-03-05T11:02:34.155Z,2.07
2019-03-05T11:07:39.471Z,2.00
2019-03-05T11:12:45.176Z,1.60
2019-03-05T11:17:50.646Z,1.80
2019-03-05T11:22:56.199Z,1.37
2019-03-05T11:28:03.511Z,1.70
2019-03-05T11:33:09.059Z,2.10
2019-03-05T11:38:14.574Z,1.97
2019-03-05T11:43:19.731Z,2.27
2019-03-05T11:48:25.091Z,1.80
2019-03-05T11:53:33.051Z,2.23
2019-03-05T11:58:37.480Z,1.37
2019-03-05T12:03:42.801Z,1.52
2019-03-05T12:08:48.082Z,1.33
2019-03-05T12:13:53.363Z,1.10
2019-03-05T12:18:58.636Z,1.10
2019-03-05T12:24:03.841Z,0.97
2019-03-05T12:29:09.044Z,0.80
2019-03-05T12:34:14.384Z,0.80
2019-03-05T12:39:21.822Z,1.00
2019-03-05T12:44:27.553Z,1.53
2019-03-05T12:49:32.906Z,1.67
2019-03-05T12:54:38.247Z,1.90
2019-03-05T12:59:45.275Z,1.93
2019-03-05T13:04:50.591Z,1.33
2019-03-05T13:09:56.974Z,1.80
2019-03-05T13:15:03.321Z,1.63
2019-03-05T13:20:11.111Z,2.20
2019-03-05T13:25:17.831Z,2.47
2019-03-05T13:30:25.887Z,2.20
2019-03-05T13:35:32.069Z,2.20
2019-03-05T13:40:38.231Z,3.27
2019-03-05T13:45:49.438Z,3.70
2019-03-05T13:51:09.167Z,3.60
2019-03-05T13:56:37.749Z,4.07
2019-03-05T14:01:41.535Z,3.90
2019-03-05T14:06:59.256Z,4.53
2019-03-05T14:12:04.647Z,4.33
2019-03-05T14:17:18.035Z,3.37
2019-03-05T14:22:23.457Z,3.97
2019-03-05T14:27:28.916Z,3.70
2019-03-05T14:32:34.203Z,4.47
2019-03-05T14:37:40.835Z,4.67
2019-03-05T14:42:49.188Z,4.10
2019-03-05T14:47:56.252Z,4.07
2019-03-05T14:53:01.638Z,3.40
2019-03-05T14:58:07.231Z,4.13
2019-03-05T15:03:12.708Z,4.23
2019-03-05T15:08:18.186Z,4.10
2019-03-05T15:13:25.157Z,4.60
2019-03-05T15:18:30.455Z,4.63
2019-03-05T15:23:35.691Z,4.33
2019-03-05T15:28:40.948Z,4.17
2019-03-05T15:33:46.294Z,3.77
2019-03-05T15:38:51.690Z,3.33
2019-03-05T15:43:57.054Z,3.30
2019-03-05T15:49:02.469Z,3.43
2019-03-05T15:54:07.858Z,4.10
2019-03-05T15:59:13.182Z,8.53
2019-03-05T16:04:18.563Z,4.77
2019-03-05T16:09:24.293Z,3.77
2019-03-05T16:14:32.832Z,3.77
2019-03-05T16:19:36.600Z,3.45
2019-03-05T16:24:41.836Z,2.67
2019-03-05T16:29:47.056Z,3.87
2019-03-05T16:40:29.624Z,3.73
2019-03-05T16:45:41.446Z,4.65
2019-03-05T16:51:06.114Z,3.93
2019-03-05T16:56:29.609Z,3.17
2019-03-05T17:01:44.359Z,1.05
2019-03-05T17:07:00.457Z,4.22
2019-03-05T17:12:06.202Z,4.60
2019-03-05T17:17:11.856Z,4.80
2019-03-05T17:22:17.141Z,4.40
2019-03-05T17:27:22.523Z,4.60
2019-03-05T17:32:28.280Z,4.72
2019-03-05T17:37:35.140Z,2.60
2019-03-05T17:42:40.686Z,5.50
2019-03-05T17:47:46.561Z,5.27
2019-03-05T17:52:51.956Z,5.13
2019-03-05T17:57:57.195Z,6.13
2019-03-05T18:03:03.385Z,6.27
2019-03-05T18:08:08.783Z,8.60
2019-03-05T18:13:14.031Z,5.87
2019-03-05T18:18:19.315Z,1.90
2019-03-05T18:23:24.655Z,1.37
2019-03-05T18:28:30.098Z,4.03
2019-03-05T18:33:35.451Z,4.53
2019-03-05T18:38:40.726Z,1.70
2019-03-05T18:43:45.995Z,5.63
2019-03-05T18:48:51.334Z,5.37
2019-03-05T18:53:59.581Z,7.60
2019-03-05T18:59:04.918Z,7.63
2019-03-05T19:04:10.310Z,8.53
2019-03-05T19:09:15.485Z,7.87
2019-03-05T19:14:20.798Z,8.23
2019-03-05T19:19:26.834Z,9.20
2019-03-05T19:24:32.225Z,8.35
2019-03-05T19:29:37.710Z,7.43
2019-03-05T19:34:42.966Z,8.33
2019-03-05T19:39:48.602Z,7.87
2019-03-05T19:44:54.102Z,8.27
2019-03-05T19:49:59.735Z,8.50
2019-03-05T19:55:05.600Z,9.10
2019-03-05T20:00:14.798Z,7.83
2019-03-05T20:05:20.286Z,7.60
2019-03-05T20:10:25.971Z,6.50
2019-03-05T20:15:31.451Z,7.00
2019-03-05T20:20:36.816Z,7.42
2019-03-05T20:25:42.234Z,5.22
2019-03-05T20:30:47.451Z,7.90
2019-03-05T20:35:52.806Z,6.50
2019-03-05T20:40:58.174Z,7.80
2019-03-05T20:46:10.080Z,7.33
2019-03-05T20:51:15.468Z,7.23
2019-03-05T20:56:20.884Z,6.33
2019-03-05T21:01:27.084Z,4.55
2019-03-05T21:06:32.481Z,7.75
2019-03-05T21:11:37.725Z,7.80
2019-03-05T21:16:42.996Z,6.87
2019-03-05T21:21:48.219Z,6.20
2019-03-05T21:26:53.713Z,5.60
2019-03-05T21:31:59.111Z,6.43
2019-03-05T21:37:04.336Z,7.53
2019-03-05T21:42:09.613Z,6.33
2019-03-05T21:47:15.253Z,5.47
2019-03-05T21:52:20.616Z,5.60
2019-03-05T21:57:26.966Z,6.80
2019-03-05T22:02:32.226Z,5.83
2019-03-05T22:07:37.510Z,7.73
2019-03-05T22:12:42.870Z,7.50
2019-03-05T22:17:48.226Z,7.53
2019-03-05T22:22:53.480Z,6.57
2019-03-05T22:27:58.846Z,6.03
2019-03-05T22:33:04.270Z,6.23
2019-03-05T22:38:09.679Z,7.17
2019-03-05T22:43:15.289Z,8.13
2019-03-05T22:48:20.543Z,6.57
2019-03-05T22:53:25.860Z,7.27
2019-03-05T22:58:31.174Z,5.83
2019-03-05T23:03:36.517Z,7.00
2019-03-05T23:08:41.792Z,7.00
2019-03-05T23:13:47.458Z,6.70
2019-03-05T23:18:52.704Z,7.63
2019-03-05T23:23:57.931Z,7.17
2019-03-05T23:29:03.277Z,6.73
2019-03-05T23:34:17.879Z,7.13
2019-03-05T23:39:18.142Z,7.63
2019-03-05T23:44:23.400Z,7.13
2019-03-05T23:49:28.651Z,7.03
2019-03-05T23:54:34.012Z,7.47
2019-03-05T23:59:39.321Z,6.58
